Strona główna
METAR-TAF:

METAR-TAF

Lotnisko :

Warszawa-Modlin, Polska

Port lotniczy Warszawa-Modlin

Szerokość geograficzna: 52-27-04N, Długość geograficzna: 020-39-06E, wysokość: 104 m

Aktualna obserwacja pogody

Raport powstał 19 minut temu, godzina 01:00 UTC
Wiatr 6 kt od północno-północny zachód
Temperatura -14°C
Wilgotność 78%
Ciśnienie 1030 hPa
Widzialność 10 km lub więcej
Brak chmur poniżej 1500 m i brak chmur cumulonimbus

METAR: EPMO 250100Z 34006KT CAVOK M14/M17 Q1030

czas: 02:19 (01:19 UTC)

Prognoza

Raport powstał 1 godzina i 49 minut temu, godzina 23:30 UTC
Prognoza ważna od 25 godzina 00 UTC do 25 godzina 24 UTC
Wiatr 8 kt od północno-północny wschód
Widzialność 10 km lub więcej
Rozproszone chmury na wysokości 2000 ft

TAF: EPMO 242330Z 2500/2524 02008KT 9999 SCT020

Obserwacja i prognoza pogody dla ponad 4000 lotnisk (raport METAR i TAF).

Dostępne stacje oznaczono żółtymi i czerwonymi punktami na mapie.

Najedź kursorem aby zobaczyć nazwę stacji.

Kliknij aby zobaczyć obserwacje i prognozy pogody.

Aby zmienić mapę: kliknij na zielony przycisk z czarnym krzyżykiem, aby powiększyć; na zielony przycisk z myślnikiem, aby pomniejszyć; na zielone strzałki, aby przejść do map sąsiednich.


METAR-TAF: